DLH68W LFBO-EDDM
Flight info
| Callsign | DLH68W |
|---|---|
| Flight time | 1h 22m |
| Altitude | 36000 |
| Route | MEN DCT NINUN DCT LATAM DCT ETREK DCT LTP DCT SOPLO DCT OMASI DCT KINNI DCT LAMUR DCT KORED/N0448F350 DCT NUNRI T103 BETOS |
| Aircraft | A321/M-SDE3FGHIRWY/LB1 |
Departure
| Time | 2026-05-01 10:31 |
|---|---|
| Airport | Toulouse-Blagnac Airport (LFBO) |
Arrival
| Time | 2026-05-01 11:54 |
|---|---|
| Airport | Munich Airport (EDDM) |
| Time | Latitude | Longitude | Altitude | Speed | Heading |
|---|---|---|---|---|---|
| 2026-05-01 09:53 | 43.62992 | 1.37246 | 498 ft | 0 kts | 83° |
| 2026-05-01 10:20 | 43.62991 | 1.37237 | 498 ft | 2 kts | 82° |
| 2026-05-01 10:21 | 43.62989 | 1.37217 | 498 ft | 2 kts | 83° |
| 2026-05-01 10:21 | 43.62980 | 1.37187 | 498 ft | 2 kts | 26° |
| 2026-05-01 10:21 | 43.62965 | 1.37184 | 497 ft | 2 kts | 342° |
| 2026-05-01 10:22 | 43.62954 | 1.37194 | 497 ft | 0 kts | 321° |
| 2026-05-01 10:26 | 43.62974 | 1.37172 | 497 ft | 8 kts | 323° |
| 2026-05-01 10:26 | 43.62983 | 1.37005 | 494 ft | 12 kts | 229° |
| 2026-05-01 10:27 | 43.63025 | 1.36823 | 495 ft | 12 kts | 323° |
| 2026-05-01 10:27 | 43.63157 | 1.36681 | 497 ft | 11 kts | 322° |
| 2026-05-01 10:28 | 43.63223 | 1.36612 | 497 ft | 12 kts | 322° |
| 2026-05-01 10:28 | 43.63377 | 1.36449 | 498 ft | 17 kts | 323° |
| 2026-05-01 10:28 | 43.63471 | 1.36350 | 498 ft | 16 kts | 322° |
| 2026-05-01 10:29 | 43.63667 | 1.36145 | 494 ft | 18 kts | 322° |
| 2026-05-01 10:29 | 43.63768 | 1.36036 | 494 ft | 18 kts | 316° |
| 2026-05-01 10:30 | 43.63742 | 1.35799 | 494 ft | 11 kts | 222° |
| 2026-05-01 10:30 | 43.63499 | 1.36004 | 498 ft | 63 kts | 142° |
| 2026-05-01 10:31 | 43.62142 | 1.37427 | 627 ft | 165 kts | 141° |
| 2026-05-01 10:31 | 43.60347 | 1.39224 | 2079 ft | 159 kts | 141° |
| 2026-05-01 10:32 | 43.58375 | 1.41222 | 2733 ft | 192 kts | 143° |
| 2026-05-01 10:32 | 43.57252 | 1.42312 | 2981 ft | 206 kts | 143° |
| 2026-05-01 10:32 | 43.54726 | 1.44910 | 3705 ft | 248 kts | 142° |
| 2026-05-01 10:33 | 43.52629 | 1.48527 | 5258 ft | 257 kts | 100° |
| 2026-05-01 10:33 | 43.53782 | 1.53201 | 6648 ft | 283 kts | 46° |
| 2026-05-01 10:34 | 43.55333 | 1.54907 | 7417 ft | 287 kts | 39° |
| 2026-05-01 10:34 | 43.56937 | 1.56534 | 8160 ft | 290 kts | 38° |
| 2026-05-01 10:34 | 43.58553 | 1.58183 | 8912 ft | 292 kts | 38° |
| 2026-05-01 10:35 | 43.61818 | 1.61580 | 10302 ft | 298 kts | 38° |
| 2026-05-01 10:35 | 43.63477 | 1.63324 | 10775 ft | 309 kts | 38° |
| 2026-05-01 10:35 | 43.65246 | 1.65195 | 11072 ft | 326 kts | 38° |
| 2026-05-01 10:35 | 43.67079 | 1.67137 | 11359 ft | 342 kts | 38° |
| 2026-05-01 10:36 | 43.71014 | 1.71297 | 11990 ft | 370 kts | 38° |
| 2026-05-01 10:36 | 43.73080 | 1.73416 | 12579 ft | 374 kts | 37° |
| 2026-05-01 10:36 | 43.75180 | 1.75554 | 13201 ft | 377 kts | 37° |
| 2026-05-01 10:37 | 43.77282 | 1.77697 | 13815 ft | 380 kts | 37° |
| 2026-05-01 10:37 | 43.81539 | 1.82056 | 14972 ft | 386 kts | 37° |
| 2026-05-01 10:37 | 43.83707 | 1.84294 | 15555 ft | 389 kts | 38° |
| 2026-05-01 10:38 | 43.85687 | 1.86831 | 16108 ft | 391 kts | 48° |
| 2026-05-01 10:38 | 43.87336 | 1.89833 | 16649 ft | 394 kts | 58° |
| 2026-05-01 10:38 | 43.88700 | 1.93140 | 17186 ft | 396 kts | 62° |
| 2026-05-01 10:38 | 43.89996 | 1.96530 | 17697 ft | 400 kts | 63° |
| 2026-05-01 10:39 | 43.91340 | 1.99893 | 18196 ft | 403 kts | 59° |
| 2026-05-01 10:39 | 43.92905 | 2.03187 | 18701 ft | 406 kts | 54° |
| 2026-05-01 10:39 | 43.94624 | 2.06251 | 19166 ft | 409 kts | 50° |
| 2026-05-01 10:39 | 43.96473 | 2.09293 | 19644 ft | 412 kts | 49° |
| 2026-05-01 10:40 | 43.98317 | 2.12284 | 20091 ft | 415 kts | 49° |
| 2026-05-01 10:40 | 44.00207 | 2.15352 | 20544 ft | 418 kts | 49° |
| 2026-05-01 10:40 | 44.02104 | 2.18438 | 20981 ft | 421 kts | 49° |
| 2026-05-01 10:40 | 44.03998 | 2.21531 | 21411 ft | 424 kts | 49° |
| 2026-05-01 10:41 | 44.05907 | 2.24656 | 21858 ft | 426 kts | 49° |
| 2026-05-01 10:41 | 44.07832 | 2.27814 | 22281 ft | 428 kts | 49° |
| 2026-05-01 10:41 | 44.11680 | 2.34136 | 23049 ft | 434 kts | 49° |
| 2026-05-01 10:42 | 44.13636 | 2.37359 | 23434 ft | 436 kts | 49° |
| 2026-05-01 10:42 | 44.15604 | 2.40603 | 23808 ft | 439 kts | 49° |
| 2026-05-01 10:42 | 44.17553 | 2.43821 | 24159 ft | 441 kts | 49° |
| 2026-05-01 10:42 | 44.19532 | 2.47090 | 24526 ft | 443 kts | 49° |
| 2026-05-01 10:43 | 44.21533 | 2.50402 | 24879 ft | 445 kts | 49° |
| 2026-05-01 10:43 | 44.23520 | 2.53694 | 25213 ft | 448 kts | 49° |
| 2026-05-01 10:43 | 44.25525 | 2.57018 | 25541 ft | 450 kts | 49° |
| 2026-05-01 10:43 | 44.27543 | 2.60369 | 25872 ft | 452 kts | 49° |
| 2026-05-01 10:44 | 44.29579 | 2.63755 | 26201 ft | 454 kts | 49° |
| 2026-05-01 10:44 | 44.31602 | 2.67123 | 26494 ft | 456 kts | 50° |
| 2026-05-01 10:44 | 44.33641 | 2.70522 | 26800 ft | 458 kts | 50° |
| 2026-05-01 10:44 | 44.35696 | 2.73952 | 27097 ft | 460 kts | 50° |
| 2026-05-01 10:45 | 44.37747 | 2.77378 | 27372 ft | 462 kts | 50° |
| 2026-05-01 10:45 | 44.39810 | 2.80829 | 27648 ft | 465 kts | 50° |
| 2026-05-01 10:45 | 44.41887 | 2.84307 | 27922 ft | 466 kts | 50° |
| 2026-05-01 10:45 | 44.43957 | 2.87778 | 28188 ft | 468 kts | 50° |
| 2026-05-01 10:46 | 44.46051 | 2.91293 | 28454 ft | 470 kts | 50° |
| 2026-05-01 10:46 | 44.48136 | 2.94799 | 28837 ft | 469 kts | 50° |
| 2026-05-01 10:46 | 44.50210 | 2.98287 | 29324 ft | 465 kts | 50° |
| 2026-05-01 10:46 | 44.52273 | 3.01766 | 29653 ft | 464 kts | 50° |
| 2026-05-01 10:47 | 44.54322 | 3.05224 | 29911 ft | 466 kts | 50° |
| 2026-05-01 10:47 | 44.56390 | 3.08719 | 30180 ft | 466 kts | 50° |
| 2026-05-01 10:47 | 44.58460 | 3.12257 | 30494 ft | 466 kts | 51° |
| 2026-05-01 10:47 | 44.60390 | 3.15883 | 30833 ft | 465 kts | 54° |
| 2026-05-01 10:48 | 44.62152 | 3.19620 | 31135 ft | 465 kts | 58° |
| 2026-05-01 10:48 | 44.63796 | 3.23539 | 31422 ft | 464 kts | 60° |
| 2026-05-01 10:48 | 44.65375 | 3.27473 | 31712 ft | 464 kts | 60° |
| 2026-05-01 10:48 | 44.66949 | 3.31429 | 32004 ft | 463 kts | 60° |
| 2026-05-01 10:49 | 44.68514 | 3.35362 | 32289 ft | 463 kts | 60° |
| 2026-05-01 10:49 | 44.70089 | 3.39315 | 32551 ft | 463 kts | 60° |
| 2026-05-01 10:49 | 44.71662 | 3.43261 | 32813 ft | 463 kts | 60° |
| 2026-05-01 10:49 | 44.73224 | 3.47177 | 33075 ft | 462 kts | 60° |
| 2026-05-01 10:50 | 44.74791 | 3.51112 | 33321 ft | 462 kts | 60° |
| 2026-05-01 10:50 | 44.76371 | 3.55083 | 33574 ft | 462 kts | 60° |
| 2026-05-01 10:50 | 44.77925 | 3.58999 | 33821 ft | 462 kts | 60° |
| 2026-05-01 10:50 | 44.79498 | 3.62966 | 34055 ft | 462 kts | 59° |
| 2026-05-01 10:51 | 44.81050 | 3.66886 | 34278 ft | 462 kts | 60° |
| 2026-05-01 10:51 | 44.82607 | 3.70822 | 34469 ft | 462 kts | 60° |
| 2026-05-01 10:51 | 44.84187 | 3.74822 | 34647 ft | 463 kts | 60° |
| 2026-05-01 10:51 | 44.85739 | 3.78761 | 34820 ft | 464 kts | 60° |
| 2026-05-01 10:52 | 44.87296 | 3.82713 | 35004 ft | 464 kts | 60° |
| 2026-05-01 10:52 | 44.88869 | 3.86715 | 35195 ft | 465 kts | 60° |
| 2026-05-01 10:52 | 44.90427 | 3.90683 | 35365 ft | 465 kts | 60° |
| 2026-05-01 10:52 | 44.91992 | 3.94675 | 35521 ft | 466 kts | 60° |
| 2026-05-01 10:53 | 44.93558 | 3.98677 | 35674 ft | 466 kts | 60° |
| 2026-05-01 10:53 | 44.95135 | 4.02712 | 35831 ft | 467 kts | 60° |
| 2026-05-01 10:53 | 44.96692 | 4.06703 | 35989 ft | 467 kts | 60° |
| 2026-05-01 10:54 | 44.99816 | 4.14722 | 36014 ft | 468 kts | 60° |
| 2026-05-01 10:54 | 45.02956 | 4.22808 | 36016 ft | 467 kts | 60° |
| 2026-05-01 10:55 | 45.06062 | 4.30832 | 36016 ft | 467 kts | 60° |
| 2026-05-01 10:55 | 45.09166 | 4.38872 | 36016 ft | 466 kts | 60° |
| 2026-05-01 10:56 | 45.12267 | 4.46926 | 36017 ft | 466 kts | 60° |
| 2026-05-01 10:56 | 45.15361 | 4.54983 | 36017 ft | 466 kts | 60° |
| 2026-05-01 10:57 | 45.18451 | 4.63061 | 36018 ft | 466 kts | 60° |
| 2026-05-01 10:57 | 45.21536 | 4.71145 | 36017 ft | 466 kts | 62° |
| 2026-05-01 10:58 | 45.24588 | 4.79171 | 36017 ft | 465 kts | 62° |
| 2026-05-01 10:58 | 45.27649 | 4.87237 | 36017 ft | 465 kts | 62° |
| 2026-05-01 10:59 | 45.30711 | 4.95334 | 36017 ft | 464 kts | 62° |
| 2026-05-01 10:59 | 45.33754 | 5.03401 | 36018 ft | 464 kts | 62° |
| 2026-05-01 11:00 | 45.36801 | 5.11503 | 36018 ft | 463 kts | 62° |
| 2026-05-01 11:00 | 45.39806 | 5.19517 | 36017 ft | 462 kts | 62° |
| 2026-05-01 11:01 | 45.42831 | 5.27611 | 36018 ft | 462 kts | 62° |
| 2026-05-01 11:01 | 45.45909 | 5.35599 | 36017 ft | 461 kts | 58° |
| 2026-05-01 11:02 | 45.49508 | 5.43088 | 36017 ft | 460 kts | 52° |
| 2026-05-01 11:02 | 45.53714 | 5.49939 | 36017 ft | 460 kts | 45° |
| 2026-05-01 11:03 | 45.58416 | 5.56158 | 36017 ft | 459 kts | 41° |
| 2026-05-01 11:03 | 45.63182 | 5.62184 | 36017 ft | 459 kts | 41° |
| 2026-05-01 11:04 | 45.67948 | 5.68255 | 36017 ft | 459 kts | 42° |
| 2026-05-01 11:04 | 45.72699 | 5.74346 | 36017 ft | 459 kts | 42° |
| 2026-05-01 11:05 | 45.77437 | 5.80429 | 36016 ft | 459 kts | 43° |
| 2026-05-01 11:05 | 45.82167 | 5.86512 | 36017 ft | 458 kts | 43° |
| 2026-05-01 11:06 | 45.86907 | 5.92625 | 36017 ft | 458 kts | 43° |
| 2026-05-01 11:06 | 45.91649 | 5.98757 | 36017 ft | 458 kts | 43° |
| 2026-05-01 11:07 | 45.98729 | 6.07936 | 36017 ft | 458 kts | 43° |
| 2026-05-01 11:07 | 46.03465 | 6.14097 | 36017 ft | 458 kts | 43° |
| 2026-05-01 11:08 | 46.08008 | 6.20474 | 36016 ft | 458 kts | 48° |
| 2026-05-01 11:09 | 46.13878 | 6.31312 | 36017 ft | 456 kts | 56° |
| 2026-05-01 11:09 | 46.17488 | 6.38756 | 36017 ft | 455 kts | 56° |
| 2026-05-01 11:10 | 46.22919 | 6.49963 | 36017 ft | 454 kts | 55° |
| 2026-05-01 11:10 | 46.26532 | 6.57424 | 36018 ft | 453 kts | 55° |
| 2026-05-01 11:11 | 46.30131 | 6.64871 | 36018 ft | 453 kts | 55° |
| 2026-05-01 11:11 | 46.33744 | 6.72366 | 36017 ft | 452 kts | 56° |
| 2026-05-01 11:12 | 46.37325 | 6.79814 | 36017 ft | 451 kts | 56° |
| 2026-05-01 11:12 | 46.40881 | 6.87229 | 36017 ft | 450 kts | 56° |
| 2026-05-01 11:13 | 46.44439 | 6.94669 | 36017 ft | 449 kts | 55° |
| 2026-05-01 11:13 | 46.47994 | 7.02119 | 36017 ft | 449 kts | 55° |
| 2026-05-01 11:14 | 46.51546 | 7.09586 | 36017 ft | 448 kts | 55° |
| 2026-05-01 11:14 | 46.55327 | 7.16789 | 36016 ft | 447 kts | 47° |
| 2026-05-01 11:15 | 46.59840 | 7.22938 | 36017 ft | 447 kts | 38° |
| 2026-05-01 11:15 | 46.65074 | 7.27904 | 36038 ft | 448 kts | 27° |
| 2026-05-01 11:16 | 46.70694 | 7.31787 | 36163 ft | 447 kts | 24° |
| 2026-05-01 11:16 | 46.76302 | 7.35504 | 36235 ft | 446 kts | 25° |
| 2026-05-01 11:17 | 46.81605 | 7.40246 | 36268 ft | 446 kts | 38° |
| 2026-05-01 11:17 | 46.86024 | 7.46523 | 36286 ft | 445 kts | 50° |
| 2026-05-01 11:18 | 46.89408 | 7.54072 | 36298 ft | 445 kts | 62° |
| 2026-05-01 11:18 | 46.92188 | 7.62195 | 36303 ft | 445 kts | 63° |
| 2026-05-01 11:19 | 46.94909 | 7.70287 | 36306 ft | 445 kts | 63° |
| 2026-05-01 11:19 | 46.97638 | 7.78373 | 36307 ft | 445 kts | 63° |
| 2026-05-01 11:20 | 47.00385 | 7.86514 | 36307 ft | 444 kts | 63° |
| 2026-05-01 11:20 | 47.03099 | 7.94572 | 36307 ft | 444 kts | 63° |
| 2026-05-01 11:21 | 47.05842 | 8.02745 | 36312 ft | 443 kts | 63° |
| 2026-05-01 11:21 | 47.08538 | 8.10803 | 36316 ft | 441 kts | 63° |
| 2026-05-01 11:22 | 47.11242 | 8.18896 | 36325 ft | 440 kts | 63° |
| 2026-05-01 11:22 | 47.13911 | 8.26912 | 36331 ft | 440 kts | 63° |
| 2026-05-01 11:23 | 47.16606 | 8.35033 | 36334 ft | 440 kts | 63° |
| 2026-05-01 11:23 | 47.19260 | 8.43062 | 36335 ft | 439 kts | 63° |
| 2026-05-01 11:24 | 47.21923 | 8.51137 | 36335 ft | 439 kts | 63° |
| 2026-05-01 11:25 | 47.25907 | 8.63269 | 36335 ft | 438 kts | 62° |
| 2026-05-01 11:25 | 47.29866 | 8.75385 | 36335 ft | 437 kts | 63° |
| 2026-05-01 11:26 | 47.33806 | 8.87496 | 36335 ft | 437 kts | 63° |
| 2026-05-01 11:27 | 47.36421 | 8.95563 | 36335 ft | 436 kts | 63° |
| 2026-05-01 11:27 | 47.39018 | 9.03605 | 36335 ft | 436 kts | 63° |
| 2026-05-01 11:28 | 47.41624 | 9.11697 | 36335 ft | 435 kts | 63° |
| 2026-05-01 11:28 | 47.44205 | 9.19736 | 36335 ft | 434 kts | 63° |
| 2026-05-01 11:29 | 47.48076 | 9.31843 | 36335 ft | 433 kts | 63° |
| 2026-05-01 11:30 | 47.51918 | 9.43918 | 36335 ft | 432 kts | 63° |
| 2026-05-01 11:30 | 47.54468 | 9.51963 | 36335 ft | 432 kts | 63° |
| 2026-05-01 11:31 | 47.56612 | 9.60234 | 36335 ft | 433 kts | 71° |
| 2026-05-01 11:31 | 47.57845 | 9.68904 | 36335 ft | 435 kts | 81° |
| 2026-05-01 11:31 | 47.58118 | 9.73431 | 36069 ft | 439 kts | 85° |
| 2026-05-01 11:32 | 47.58136 | 9.77979 | 35473 ft | 441 kts | 90° |
| 2026-05-01 11:32 | 47.57981 | 9.82529 | 34657 ft | 445 kts | 91° |
| 2026-05-01 11:32 | 47.57792 | 9.87057 | 33820 ft | 448 kts | 91° |
| 2026-05-01 11:32 | 47.57594 | 9.91684 | 32934 ft | 451 kts | 91° |
| 2026-05-01 11:33 | 47.57396 | 9.96312 | 32106 ft | 453 kts | 91° |
| 2026-05-01 11:33 | 47.57199 | 10.00987 | 31295 ft | 454 kts | 90° |
| 2026-05-01 11:33 | 47.57001 | 10.05621 | 30523 ft | 454 kts | 90° |
| 2026-05-01 11:33 | 47.56806 | 10.10234 | 29749 ft | 454 kts | 90° |
| 2026-05-01 11:34 | 47.56609 | 10.14906 | 28944 ft | 454 kts | 90° |
| 2026-05-01 11:34 | 47.56411 | 10.19536 | 28187 ft | 453 kts | 90° |
| 2026-05-01 11:34 | 47.56211 | 10.24141 | 27667 ft | 446 kts | 90° |
| 2026-05-01 11:34 | 47.56010 | 10.28717 | 27137 ft | 440 kts | 91° |
| 2026-05-01 11:35 | 47.55812 | 10.33161 | 26613 ft | 435 kts | 90° |
| 2026-05-01 11:35 | 47.55611 | 10.37608 | 26085 ft | 429 kts | 91° |
| 2026-05-01 11:35 | 47.55412 | 10.41962 | 25559 ft | 424 kts | 91° |
| 2026-05-01 11:35 | 47.55210 | 10.46313 | 25031 ft | 419 kts | 91° |
| 2026-05-01 11:36 | 47.55043 | 10.50552 | 24504 ft | 413 kts | 87° |
| 2026-05-01 11:36 | 47.55328 | 10.54744 | 23970 ft | 405 kts | 75° |
| 2026-05-01 11:36 | 47.56182 | 10.58646 | 23447 ft | 398 kts | 64° |
| 2026-05-01 11:36 | 47.57478 | 10.62219 | 22931 ft | 393 kts | 58° |
| 2026-05-01 11:37 | 47.58873 | 10.65683 | 22412 ft | 389 kts | 58° |
| 2026-05-01 11:37 | 47.60275 | 10.69122 | 21889 ft | 386 kts | 58° |
| 2026-05-01 11:37 | 47.61654 | 10.72516 | 21375 ft | 383 kts | 58° |
| 2026-05-01 11:37 | 47.63018 | 10.75894 | 20857 ft | 380 kts | 58° |
| 2026-05-01 11:38 | 47.64349 | 10.79204 | 20350 ft | 377 kts | 59° |
| 2026-05-01 11:38 | 47.65696 | 10.82563 | 19831 ft | 375 kts | 59° |
| 2026-05-01 11:38 | 47.67034 | 10.85830 | 19318 ft | 372 kts | 56° |
| 2026-05-01 11:38 | 47.68600 | 10.88873 | 18804 ft | 370 kts | 49° |
| 2026-05-01 11:39 | 47.70398 | 10.91554 | 18287 ft | 368 kts | 42° |
| 2026-05-01 11:39 | 47.72369 | 10.93986 | 17771 ft | 366 kts | 40° |
| 2026-05-01 11:39 | 47.74354 | 10.96341 | 17255 ft | 364 kts | 39° |
| 2026-05-01 11:39 | 47.76325 | 10.98669 | 16741 ft | 362 kts | 39° |
| 2026-05-01 11:40 | 47.78275 | 11.00975 | 16230 ft | 360 kts | 39° |
| 2026-05-01 11:40 | 47.80223 | 11.03287 | 15718 ft | 358 kts | 39° |
| 2026-05-01 11:40 | 47.82160 | 11.05592 | 15207 ft | 356 kts | 39° |
| 2026-05-01 11:40 | 47.84090 | 11.07892 | 14695 ft | 354 kts | 39° |
| 2026-05-01 11:41 | 47.86000 | 11.10171 | 14188 ft | 352 kts | 39° |
| 2026-05-01 11:41 | 47.87893 | 11.12415 | 13727 ft | 348 kts | 39° |
| 2026-05-01 11:41 | 47.89803 | 11.14577 | 13317 ft | 343 kts | 33° |
| 2026-05-01 11:41 | 47.92007 | 11.15789 | 12589 ft | 336 kts | 11° |
| 2026-05-01 11:42 | 47.94323 | 11.16114 | 11474 ft | 339 kts | 6° |
| 2026-05-01 11:42 | 47.96644 | 11.16351 | 10374 ft | 339 kts | 6° |
| 2026-05-01 11:42 | 47.98957 | 11.16615 | 9685 ft | 328 kts | 7° |
| 2026-05-01 11:42 | 48.01144 | 11.16893 | 9530 ft | 304 kts | 8° |
| 2026-05-01 11:43 | 48.03180 | 11.17168 | 9403 ft | 286 kts | 8° |
| 2026-05-01 11:43 | 48.05135 | 11.17451 | 9278 ft | 284 kts | 8° |
| 2026-05-01 11:43 | 48.07121 | 11.17748 | 9152 ft | 285 kts | 9° |
| 2026-05-01 11:44 | 48.11053 | 11.18341 | 8886 ft | 283 kts | 9° |
| 2026-05-01 11:44 | 48.12992 | 11.18634 | 8762 ft | 283 kts | 9° |
| 2026-05-01 11:44 | 48.14962 | 11.18929 | 8636 ft | 283 kts | 9° |
| 2026-05-01 11:44 | 48.16841 | 11.19213 | 8517 ft | 282 kts | 9° |
| 2026-05-01 11:45 | 48.18792 | 11.19508 | 8385 ft | 281 kts | 10° |
| 2026-05-01 11:45 | 48.20655 | 11.20279 | 8199 ft | 274 kts | 33° |
| 2026-05-01 11:45 | 48.22030 | 11.22128 | 8003 ft | 269 kts | 56° |
| 2026-05-01 11:45 | 48.23074 | 11.24448 | 7775 ft | 267 kts | 59° |
| 2026-05-01 11:46 | 48.24090 | 11.26793 | 7471 ft | 266 kts | 58° |
| 2026-05-01 11:46 | 48.25093 | 11.29094 | 7155 ft | 265 kts | 58° |
| 2026-05-01 11:46 | 48.26106 | 11.31401 | 6818 ft | 264 kts | 58° |
| 2026-05-01 11:46 | 48.27121 | 11.33699 | 6439 ft | 265 kts | 58° |
| 2026-05-01 11:47 | 48.28140 | 11.36011 | 6068 ft | 264 kts | 58° |
| 2026-05-01 11:47 | 48.29156 | 11.38319 | 5708 ft | 264 kts | 58° |
| 2026-05-01 11:47 | 48.30156 | 11.40578 | 5423 ft | 255 kts | 59° |
| 2026-05-01 11:47 | 48.31112 | 11.42741 | 5373 ft | 240 kts | 58° |
| 2026-05-01 11:48 | 48.31984 | 11.44709 | 5364 ft | 217 kts | 59° |
| 2026-05-01 11:48 | 48.32779 | 11.46520 | 5442 ft | 195 kts | 58° |
| 2026-05-01 11:48 | 48.33470 | 11.48166 | 5402 ft | 174 kts | 63° |
| 2026-05-01 11:48 | 48.33911 | 11.49732 | 5362 ft | 156 kts | 72° |
| 2026-05-01 11:49 | 48.34184 | 11.51311 | 5012 ft | 162 kts | 81° |
| 2026-05-01 11:49 | 48.34402 | 11.53002 | 4583 ft | 164 kts | 79° |
| 2026-05-01 11:49 | 48.34584 | 11.54649 | 4330 ft | 156 kts | 81° |
| 2026-05-01 11:49 | 48.34731 | 11.56222 | 4115 ft | 148 kts | 83° |
| 2026-05-01 11:50 | 48.34855 | 11.57724 | 3920 ft | 144 kts | 84° |
| 2026-05-01 11:50 | 48.34969 | 11.59230 | 3740 ft | 145 kts | 82° |
| 2026-05-01 11:50 | 48.35081 | 11.60743 | 3554 ft | 145 kts | 81° |
| 2026-05-01 11:50 | 48.35196 | 11.62248 | 3401 ft | 144 kts | 85° |
| 2026-05-01 11:51 | 48.35305 | 11.63750 | 3201 ft | 145 kts | 84° |
| 2026-05-01 11:51 | 48.35414 | 11.65227 | 2998 ft | 142 kts | 84° |
| 2026-05-01 11:51 | 48.35524 | 11.66714 | 2797 ft | 142 kts | 83° |
| 2026-05-01 11:51 | 48.35632 | 11.68173 | 2606 ft | 142 kts | 83° |
| 2026-05-01 11:52 | 48.35744 | 11.69652 | 2416 ft | 141 kts | 86° |
| 2026-05-01 11:52 | 48.35854 | 11.71112 | 2233 ft | 141 kts | 86° |
| 2026-05-01 11:52 | 48.35965 | 11.72596 | 2047 ft | 141 kts | 83° |
| 2026-05-01 11:52 | 48.36075 | 11.74052 | 1861 ft | 140 kts | 84° |
| 2026-05-01 11:53 | 48.36185 | 11.75495 | 1676 ft | 140 kts | 86° |
| 2026-05-01 11:53 | 48.36291 | 11.76954 | 1507 ft | 139 kts | 83° |
| 2026-05-01 11:53 | 48.36396 | 11.78297 | 1470 ft | 114 kts | 84° |
| 2026-05-01 11:53 | 48.36465 | 11.79227 | 1466 ft | 64 kts | 83° |
| 2026-05-01 11:54 | 48.36503 | 11.79702 | 1464 ft | 31 kts | 84° |
| 2026-05-01 11:54 | 48.36510 | 11.79889 | 1463 ft | 13 kts | 94° |
| 2026-05-01 11:54 | 48.36494 | 11.80030 | 1463 ft | 14 kts | 109° |
| 2026-05-01 11:54 | 48.36454 | 11.80182 | 1462 ft | 15 kts | 114° |
| 2026-05-01 11:55 | 48.36411 | 11.80332 | 1461 ft | 15 kts | 114° |
| 2026-05-01 11:55 | 48.36389 | 11.80406 | 1461 ft | 2 kts | 114° |
| 2026-05-01 11:55 | 48.36381 | 11.80435 | 1461 ft | 3 kts | 114° |
| 2026-05-01 11:55 | 48.36378 | 11.80445 | 1461 ft | 0 kts | 114° |
| 2026-05-01 11:56 | 48.36370 | 11.80473 | 1461 ft | 10 kts | 114° |
| 2026-05-01 11:56 | 48.36304 | 11.80499 | 1461 ft | 11 kts | 221° |
| 2026-05-01 11:57 | 48.36283 | 11.80392 | 1462 ft | 10 kts | 265° |
| 2026-05-01 11:57 | 48.36277 | 11.80288 | 1463 ft | 9 kts | 264° |
| 2026-05-01 11:57 | 48.36269 | 11.80191 | 1463 ft | 8 kts | 263° |
| 2026-05-01 11:57 | 48.36261 | 11.80102 | 1464 ft | 8 kts | 263° |
| 2026-05-01 11:58 | 48.36254 | 11.80018 | 1464 ft | 7 kts | 264° |
| 2026-05-01 11:58 | 48.36247 | 11.79913 | 1465 ft | 14 kts | 264° |
| 2026-05-01 11:58 | 48.36225 | 11.79616 | 1466 ft | 13 kts | 262° |
| 2026-05-01 11:59 | 48.36202 | 11.79489 | 1467 ft | 12 kts | 226° |
| 2026-05-01 11:59 | 48.36125 | 11.79474 | 1467 ft | 11 kts | 174° |
| 2026-05-01 11:59 | 48.36050 | 11.79486 | 1468 ft | 10 kts | 173° |
| 2026-05-01 12:00 | 48.35980 | 11.79499 | 1468 ft | 3 kts | 173° |
| 2026-05-01 12:00 | 48.35972 | 11.79501 | 1468 ft | 0 kts | 173° |
| 2026-05-01 12:00 | 48.35959 | 11.79501 | 1468 ft | 4 kts | 181° |
| 2026-05-01 12:01 | 48.35912 | 11.79480 | 1469 ft | 8 kts | 207° |
| 2026-05-01 12:01 | 48.35859 | 11.79455 | 1470 ft | 7 kts | 185° |
| 2026-05-01 12:01 | 48.35810 | 11.79458 | 1470 ft | 6 kts | 172° |
| 2026-05-01 12:01 | 48.35764 | 11.79468 | 1471 ft | 6 kts | 172° |
| 2026-05-01 12:02 | 48.35723 | 11.79476 | 1471 ft | 6 kts | 173° |
| 2026-05-01 12:02 | 48.35672 | 11.79485 | 1471 ft | 7 kts | 174° |
| 2026-05-01 12:02 | 48.35622 | 11.79493 | 1472 ft | 6 kts | 173° |
| 2026-05-01 12:02 | 48.35577 | 11.79501 | 1472 ft | 6 kts | 173° |
| 2026-05-01 12:03 | 48.35536 | 11.79508 | 1472 ft | 5 kts | 174° |
| 2026-05-01 12:03 | 48.35506 | 11.79511 | 1473 ft | 0 kts | 185° |
| 2026-05-01 12:04 | 48.35503 | 11.79510 | 1473 ft | 1 kts | 187° |
| 2026-05-01 12:04 | 48.35486 | 11.79499 | 1473 ft | 3 kts | 216° |
| 2026-05-01 12:04 | 48.35473 | 11.79473 | 1473 ft | 3 kts | 248° |
| 2026-05-01 12:04 | 48.35467 | 11.79438 | 1473 ft | 3 kts | 260° |
| 2026-05-01 12:05 | 48.35464 | 11.79406 | 1474 ft | 2 kts | 263° |
| 2026-05-01 12:05 | 48.35461 | 11.79363 | 1474 ft | 1 kts | 264° |
| 2026-05-01 12:05 | 48.35460 | 11.79356 | 1474 ft | 0 kts | 263° |
| 2026-05-01 12:06 | 48.35459 | 11.79336 | 1474 ft | 2 kts | 264° |
| 2026-05-01 12:06 | 48.35457 | 11.79314 | 1474 ft | 1 kts | 264° |
| 2026-05-01 12:06 | 48.35457 | 11.79307 | 1474 ft | 0 kts | 263° |
| 2026-05-01 12:06 | 48.35456 | 11.79298 | 1474 ft | 0 kts | 264° |